createdAt,value
2019-05-13T00:02:21.116Z,103295.56
2019-05-13T00:04:53.247Z,103298.04
2019-05-13T00:07:23.945Z,103299.74
2019-05-13T00:09:54.448Z,103297.59
2019-05-13T00:12:24.459Z,103296.27
2019-05-13T00:14:54.467Z,103297.96
2019-05-13T00:17:24.456Z,103297.11
2019-05-13T00:19:55.973Z,103299.30
2019-05-13T00:22:25.975Z,103297.84
2019-05-13T00:24:55.953Z,103291.00
2019-05-13T00:27:26.054Z,103296.88
2019-05-13T00:29:56.400Z,103304.55
2019-05-13T00:32:26.388Z,103300.94
2019-05-13T00:34:56.380Z,103298.27
2019-05-13T00:37:26.546Z,103306.05
2019-05-13T00:39:56.551Z,103299.84
2019-05-13T00:42:29.788Z,103304.11
2019-05-13T00:45:03.853Z,103299.93
2019-05-13T00:47:34.209Z,103300.86
2019-05-13T00:50:05.816Z,103306.41
2019-05-13T00:52:36.372Z,103308.08
2019-05-13T00:55:10.128Z,103310.27
2019-05-13T00:57:43.674Z,103311.89
2019-05-13T01:00:14.398Z,103313.91
2019-05-13T01:02:46.111Z,103320.31
2019-05-13T01:05:16.493Z,103316.47
2019-05-13T01:07:46.471Z,103312.21
2019-05-13T01:10:16.617Z,103314.28
2019-05-13T01:12:46.617Z,103314.07
2019-05-13T01:15:16.755Z,103316.70
2019-05-13T01:17:46.739Z,103313.19
2019-05-13T01:20:17.961Z,103318.09
2019-05-13T01:22:49.020Z,103313.22
2019-05-13T01:25:19.039Z,103318.85
2019-05-13T01:27:53.604Z,103321.84
2019-05-13T01:30:25.762Z,103320.42
2019-05-13T01:32:56.065Z,103327.36
2019-05-13T01:35:26.072Z,103327.27
2019-05-13T01:37:58.815Z,103320.17
2019-05-13T01:40:28.957Z,103318.75
2019-05-13T01:42:59.203Z,103315.22
2019-05-13T01:45:29.277Z,103315.58
2019-05-13T01:47:59.327Z,103319.11
2019-05-13T01:50:30.929Z,103319.56
2019-05-13T01:53:01.006Z,103318.30
2019-05-13T01:55:33.961Z,103322.11
2019-05-13T01:58:04.310Z,103318.94
2019-05-13T02:00:35.591Z,103317.20
2019-05-13T02:03:05.853Z,103313.67
2019-05-13T02:05:35.861Z,103318.85
2019-05-13T02:08:06.087Z,103321.53
2019-05-13T02:10:56.106Z,103324.44
2019-05-13T02:13:26.333Z,103314.47
2019-05-13T02:15:57.569Z,103317.73
2019-05-13T02:18:28.901Z,103315.59
2019-05-13T02:20:58.827Z,103321.31
2019-05-13T02:23:28.814Z,103308.77
2019-05-13T02:25:58.889Z,103317.70
2019-05-13T02:28:28.886Z,103324.30
2019-05-13T02:30:58.898Z,103333.02
2019-05-13T02:33:29.541Z,103341.47
2019-05-13T02:36:02.623Z,103332.58
2019-05-13T02:38:35.505Z,103332.05
2019-05-13T02:41:03.431Z,103338.06
2019-05-13T02:43:33.746Z,103331.49
2019-05-13T02:46:04.535Z,103334.75
2019-05-13T02:48:34.721Z,103348.31
2019-05-13T02:51:04.818Z,103346.44
2019-05-13T02:53:35.881Z,103345.41
2019-05-13T02:56:05.988Z,103350.20
2019-05-13T02:58:36.615Z,103354.73
2019-05-13T03:01:06.632Z,103353.44
2019-05-13T03:03:36.628Z,103354.24
2019-05-13T03:06:06.637Z,103353.44
2019-05-13T03:08:46.368Z,103356.67
2019-05-13T03:11:08.334Z,103360.95
2019-05-13T03:13:38.408Z,103366.72
2019-05-13T03:16:13.221Z,103359.90
2019-05-13T03:18:43.616Z,103367.36
2019-05-13T03:21:13.660Z,103367.99
2019-05-13T03:23:44.462Z,103364.47
2019-05-13T03:26:15.776Z,103364.72
2019-05-13T03:28:45.849Z,103366.67
2019-05-13T03:31:18.038Z,103370.05
2019-05-13T03:33:55.985Z,103372.70
2019-05-13T03:36:25.754Z,103371.59
2019-05-13T03:39:05.264Z,103371.24
2019-05-13T03:41:32.721Z,103375.87
2019-05-13T03:44:03.312Z,103379.56
2019-05-13T03:46:37.035Z,103380.16
2019-05-13T03:49:13.915Z,103382.80
2019-05-13T03:51:42.887Z,103387.44
2019-05-13T03:54:18.234Z,103388.27
2019-05-13T03:56:48.381Z,103392.70
2019-05-13T03:59:18.523Z,103396.63
2019-05-13T04:01:52.183Z,103400.20
2019-05-13T04:04:23.286Z,103396.58
2019-05-13T04:06:53.176Z,103394.84
2019-05-13T04:09:31.135Z,103392.84
2019-05-13T04:11:55.096Z,103401.66
2019-05-13T04:14:25.348Z,103400.81
2019-05-13T04:16:55.448Z,103398.17
2019-05-13T04:19:25.521Z,103394.03
2019-05-13T04:21:55.593Z,103401.00
2019-05-13T04:24:25.650Z,103402.29
2019-05-13T04:26:55.727Z,103406.98
2019-05-13T04:29:25.888Z,103400.16
2019-05-13T04:31:56.025Z,103410.44
2019-05-13T04:34:26.164Z,103415.97
2019-05-13T04:37:02.146Z,103408.84
2019-05-13T04:39:44.617Z,103412.77
2019-05-13T04:42:03.060Z,103413.63
2019-05-13T04:44:33.302Z,103411.41
2019-05-13T04:47:04.200Z,103415.88
2019-05-13T04:49:34.393Z,103409.05
2019-05-13T04:52:05.826Z,103410.89
2019-05-13T04:54:36.923Z,103412.86
2019-05-13T04:57:07.003Z,103414.59
2019-05-13T04:59:40.350Z,103415.63
2019-05-13T05:02:37.309Z,103415.86
2019-05-13T05:05:17.830Z,103419.16
2019-05-13T05:08:15.008Z,103414.11
2019-05-13T05:10:57.126Z,103412.67
2019-05-13T05:13:42.953Z,103425.81
2019-05-13T05:16:41.076Z,103418.11
2019-05-13T05:19:47.329Z,103427.77
2019-05-13T05:22:22.167Z,103425.66
2019-05-13T05:25:01.768Z,103418.58
2019-05-13T05:27:43.410Z,103417.58
2019-05-13T05:30:37.104Z,103422.22
2019-05-13T05:33:43.498Z,103422.59
2019-05-13T05:36:47.076Z,103422.11
2019-05-13T05:39:27.731Z,103429.80
2019-05-13T05:41:58.874Z,103429.52
2019-05-13T05:44:32.458Z,103429.60
2019-05-13T05:47:03.848Z,103437.18
2019-05-13T05:49:33.996Z,103430.96
2019-05-13T05:52:12.280Z,103432.73
2019-05-13T05:54:42.350Z,103434.38
2019-05-13T05:57:12.477Z,103433.27
2019-05-13T05:59:42.969Z,103425.77
2019-05-13T06:02:13.774Z,103433.16
2019-05-13T06:04:46.870Z,103430.73
2019-05-13T06:07:17.215Z,103430.50
2019-05-13T06:09:47.355Z,103426.63
2019-05-13T06:12:21.362Z,103426.81
2019-05-13T06:14:52.468Z,103426.47
2019-05-13T06:17:22.860Z,103424.95
2019-05-13T06:19:52.935Z,103425.18
2019-05-13T06:22:22.987Z,103424.80
2019-05-13T06:24:53.147Z,103431.59
2019-05-13T06:27:26.248Z,103423.14
2019-05-13T06:29:56.855Z,103433.27
2019-05-13T06:32:27.003Z,103430.82
2019-05-13T06:34:57.365Z,103431.09
2019-05-13T06:37:27.493Z,103441.45
2019-05-13T06:39:57.567Z,103439.58
2019-05-13T06:42:27.574Z,103438.28
2019-05-13T06:44:57.635Z,103443.84
2019-05-13T06:47:27.665Z,103437.05
2019-05-13T06:49:57.749Z,103438.33
2019-05-13T06:52:27.818Z,103441.09
2019-05-13T06:54:57.865Z,103442.89
2019-05-13T06:57:27.942Z,103437.91
2019-05-13T06:59:57.946Z,103439.00
2019-05-13T07:02:27.938Z,103433.23
2019-05-13T07:05:02.076Z,103433.69
2019-05-13T07:07:31.898Z,103429.86
2019-05-13T07:10:02.766Z,103432.52
2019-05-13T07:12:32.906Z,103432.66
2019-05-13T07:15:03.514Z,103433.32
2019-05-13T07:17:34.044Z,103432.09
2019-05-13T07:20:11.358Z,103436.46
2019-05-13T07:22:43.289Z,103430.98
2019-05-13T07:25:13.538Z,103430.74
2019-05-13T07:27:43.622Z,103429.20
2019-05-13T07:30:16.370Z,103435.95
2019-05-13T07:32:46.532Z,103433.59
2019-05-13T07:35:16.976Z,103430.17
2019-05-13T07:37:51.636Z,103424.23
2019-05-13T07:40:22.211Z,103431.03
2019-05-13T07:42:52.923Z,103430.05
2019-05-13T07:45:22.921Z,103428.80
2019-05-13T07:47:53.112Z,103429.75
2019-05-13T07:50:25.562Z,103433.61
2019-05-13T07:52:58.435Z,103428.51
2019-05-13T07:55:31.614Z,103429.17
2019-05-13T07:58:02.229Z,103429.17
2019-05-13T08:00:32.714Z,103422.73
2019-05-13T08:03:02.964Z,103429.73
2019-05-13T08:05:33.093Z,103421.97
2019-05-13T08:08:03.158Z,103416.78
2019-05-13T08:10:33.255Z,103413.47
2019-05-13T08:13:03.251Z,103411.95
2019-05-13T08:15:33.272Z,103413.78
2019-05-13T08:18:03.432Z,103413.27
2019-05-13T08:20:36.272Z,103415.59
2019-05-13T08:23:07.807Z,103418.27
2019-05-13T08:25:38.002Z,103414.90
2019-05-13T08:28:12.274Z,103425.03
2019-05-13T08:30:43.088Z,103425.14
2019-05-13T08:33:13.373Z,103420.74
2019-05-13T08:35:52.230Z,103407.58
2019-05-13T08:38:15.249Z,103417.64
2019-05-13T08:40:45.380Z,103414.61
2019-05-13T08:43:15.387Z,103419.94
2019-05-13T08:45:45.554Z,103422.52
2019-05-13T08:48:23.872Z,103425.19
2019-05-13T08:50:55.272Z,103423.48
2019-05-13T08:53:28.860Z,103421.72
2019-05-13T08:55:58.880Z,103419.64
2019-05-13T08:58:28.892Z,103414.85
2019-05-13T09:01:01.868Z,103412.66
2019-05-13T09:03:32.604Z,103413.53
2019-05-13T09:06:03.066Z,103407.84
2019-05-13T09:08:33.283Z,103403.02
2019-05-13T09:11:03.380Z,103404.75
2019-05-13T09:13:33.530Z,103413.91
2019-05-13T09:16:03.929Z,103405.16
2019-05-13T09:18:35.028Z,103399.00
2019-05-13T09:21:06.844Z,103402.95
2019-05-13T09:23:36.861Z,103395.58
2019-05-13T09:26:06.930Z,103405.20
2019-05-13T09:28:37.192Z,103398.63
2019-05-13T09:31:07.270Z,103395.50
2019-05-13T09:33:37.371Z,103392.02
2019-05-13T09:36:08.448Z,103393.81
2019-05-13T09:38:41.973Z,103396.83
2019-05-13T09:41:12.496Z,103393.22
2019-05-13T09:43:42.533Z,103397.08
2019-05-13T09:46:12.926Z,103390.12
2019-05-13T09:48:42.946Z,103387.41
2019-05-13T09:51:12.964Z,103382.16
2019-05-13T09:53:43.237Z,103381.27
2019-05-13T09:56:14.412Z,103384.37
2019-05-13T09:58:44.394Z,103382.25
2019-05-13T10:01:14.478Z,103375.16
2019-05-13T10:03:53.787Z,103372.00
2019-05-13T10:06:16.198Z,103375.80
2019-05-13T10:08:46.191Z,103369.66
2019-05-13T10:11:16.299Z,103373.75
2019-05-13T10:13:46.422Z,103368.59
2019-05-13T10:16:16.507Z,103370.70
2019-05-13T10:18:46.508Z,103358.23
2019-05-13T10:21:16.775Z,103362.67
2019-05-13T10:23:46.949Z,103364.46
2019-05-13T10:26:17.393Z,103361.00
2019-05-13T10:28:47.952Z,103358.23
2019-05-13T10:31:18.099Z,103356.34
2019-05-13T10:33:51.575Z,103357.74
2019-05-13T10:36:22.579Z,103354.81
2019-05-13T10:38:52.880Z,103359.39
2019-05-13T10:41:23.218Z,103359.52
2019-05-13T10:43:56.197Z,103360.34
2019-05-13T10:46:26.283Z,103359.41
2019-05-13T10:48:56.287Z,103349.97
2019-05-13T10:51:26.629Z,103344.27
2019-05-13T10:53:59.735Z,103348.09
2019-05-13T10:56:32.915Z,103344.31
2019-05-13T10:59:04.706Z,103344.53
2019-05-13T11:01:34.801Z,103351.86
2019-05-13T11:04:04.946Z,103347.91
2019-05-13T11:06:35.127Z,103346.83
2019-05-13T11:09:08.663Z,103337.69
2019-05-13T11:11:41.420Z,103344.74
2019-05-13T11:14:15.668Z,103338.00
2019-05-13T11:16:47.555Z,103327.09
2019-05-13T11:19:17.650Z,103334.77
2019-05-13T11:21:50.833Z,103328.72
2019-05-13T11:24:22.857Z,103323.70
2019-05-13T11:26:53.372Z,103324.68
2019-05-13T11:29:23.452Z,103312.90
2019-05-13T11:31:53.602Z,103316.30
2019-05-13T11:34:27.558Z,103305.61
2019-05-13T11:36:59.103Z,103308.12
2019-05-13T11:39:29.114Z,103294.09
2019-05-13T11:42:02.050Z,103304.16
2019-05-13T11:44:32.583Z,103303.73
2019-05-13T11:47:03.100Z,103307.22
2019-05-13T11:49:33.238Z,103302.75
2019-05-13T11:52:03.326Z,103295.86
2019-05-13T11:54:36.731Z,103298.68
2019-05-13T11:57:08.376Z,103301.34
2019-05-13T11:59:38.460Z,103296.22
2019-05-13T12:02:13.251Z,103290.96
2019-05-13T12:04:44.037Z,103296.67
2019-05-13T12:07:13.673Z,103292.45
2019-05-13T12:09:46.508Z,103285.13
2019-05-13T12:12:16.531Z,103281.30
2019-05-13T12:15:17.780Z,103277.98
2019-05-13T12:17:18.790Z,103280.16
2019-05-13T12:19:49.071Z,103280.36
2019-05-13T12:22:22.724Z,103285.09
2019-05-13T12:24:52.082Z,103269.30
2019-05-13T12:27:22.370Z,103275.91
2019-05-13T12:29:53.040Z,103278.47
2019-05-13T12:32:23.214Z,103271.31
2019-05-13T12:34:55.799Z,103269.50
2019-05-13T12:37:25.907Z,103267.27
2019-05-13T12:39:55.931Z,103264.17
2019-05-13T12:42:25.955Z,103252.09
2019-05-13T12:45:08.263Z,103254.27
2019-05-13T12:47:27.815Z,103250.90
2019-05-13T12:49:57.813Z,103244.27
2019-05-13T12:52:27.835Z,103236.11
2019-05-13T12:54:57.899Z,103236.81
2019-05-13T12:57:28.080Z,103234.42
2019-05-13T12:59:58.411Z,103237.53
2019-05-13T13:02:28.468Z,103232.85
2019-05-13T13:05:20.027Z,103222.48
2019-05-13T13:07:34.926Z,103216.74
2019-05-13T13:10:02.176Z,103217.05
2019-05-13T13:12:36.118Z,103210.49
2019-05-13T13:17:41.405Z,103221.28
2019-05-13T13:20:14.914Z,103216.87
2019-05-13T13:22:48.869Z,103209.96
2019-05-13T13:25:23.549Z,103205.98
2019-05-13T13:30:24.299Z,103199.40
2019-05-13T13:32:55.045Z,103204.65
2019-05-13T13:35:25.314Z,103195.06
2019-05-13T13:37:55.334Z,103194.20
2019-05-13T13:40:29.740Z,103198.95
2019-05-13T13:42:58.652Z,103186.92
2019-05-13T13:45:36.783Z,103197.13
2019-05-13T13:48:04.385Z,103186.43
2019-05-13T13:50:36.074Z,103183.05
2019-05-13T13:53:06.134Z,103181.38
2019-05-13T13:55:36.370Z,103178.95
2019-05-13T13:58:09.181Z,103179.11
2019-05-13T14:00:50.520Z,103183.44
2019-05-13T14:03:12.343Z,103168.48
2019-05-13T14:05:43.080Z,103165.28
2019-05-13T14:07:13.040Z,103220.66
2019-05-13T14:08:13.196Z,103177.97
2019-05-13T14:10:43.506Z,103174.92
2019-05-13T14:13:13.600Z,103171.77
2019-05-13T14:15:43.601Z,103167.73
2019-05-13T14:18:17.501Z,103165.00
2019-05-13T14:20:47.668Z,103169.27
2019-05-13T14:23:17.690Z,103175.05
2019-05-13T14:25:48.027Z,103173.41
2019-05-13T14:28:18.419Z,103167.92
2019-05-13T14:30:51.410Z,103162.32
2019-05-13T14:33:22.043Z,103154.15
2019-05-13T14:35:53.193Z,103149.41
2019-05-13T14:38:23.477Z,103140.16
2019-05-13T14:40:53.910Z,103147.61
2019-05-13T14:43:24.570Z,103148.25
2019-05-13T14:45:57.762Z,103152.68
2019-05-13T14:48:28.121Z,103149.89
2019-05-13T14:50:59.045Z,103148.98
2019-05-13T14:53:32.109Z,103143.75
2019-05-13T14:56:03.334Z,103149.84
2019-05-13T14:58:33.503Z,103142.59
2019-05-13T15:01:15.900Z,103148.91
2019-05-13T15:03:36.023Z,103150.50
2019-05-13T15:06:06.320Z,103149.88
2019-05-13T15:08:42.172Z,103142.53
2019-05-13T15:11:12.689Z,103136.38
2019-05-13T15:13:43.307Z,103137.61
2019-05-13T15:16:13.586Z,103141.96
2019-05-13T15:18:45.616Z,103139.31
2019-05-13T15:21:15.811Z,103141.46
2019-05-13T15:23:45.907Z,103144.97
2019-05-13T15:26:17.791Z,103138.83
2019-05-13T15:28:47.948Z,103143.80
2019-05-13T15:31:18.124Z,103149.97
2019-05-13T15:33:48.123Z,103131.80
2019-05-13T15:36:22.384Z,103126.38
2019-05-13T15:38:52.152Z,103133.11
2019-05-13T15:41:22.751Z,103136.47
2019-05-13T15:44:03.157Z,103133.36
2019-05-13T15:46:32.423Z,103135.53
2019-05-13T15:49:04.039Z,103137.79
2019-05-13T15:51:34.258Z,103130.30
2019-05-13T15:54:04.517Z,103140.80
2019-05-13T15:56:34.716Z,103140.20
2019-05-13T15:59:12.539Z,103135.52
2019-05-13T16:01:43.939Z,103136.62
2019-05-13T16:04:16.373Z,103131.70
2019-05-13T16:06:46.447Z,103134.62
2019-05-13T16:09:17.991Z,103129.62
2019-05-13T16:11:48.665Z,103136.33
2019-05-13T16:14:18.736Z,103137.20
2019-05-13T16:16:49.983Z,103135.20
2019-05-13T16:19:24.975Z,103133.45
2019-05-13T16:21:55.126Z,103132.89
2019-05-13T16:24:25.153Z,103132.28
2019-05-13T16:26:55.743Z,103142.38
2019-05-13T16:29:31.711Z,103139.48
2019-05-13T16:32:05.420Z,103140.59
2019-05-13T16:34:35.530Z,103142.78
2019-05-13T16:37:05.618Z,103145.49
2019-05-13T16:39:35.678Z,103142.52
2019-05-13T16:42:05.835Z,103141.73
2019-05-13T16:44:37.427Z,103145.54
2019-05-13T16:47:08.068Z,103155.55
2019-05-13T16:49:38.083Z,103147.22
2019-05-13T16:52:08.731Z,103145.91
2019-05-13T16:54:42.383Z,103148.81
2019-05-13T16:57:16.769Z,103139.45
2019-05-13T16:59:47.229Z,103141.37
2019-05-13T17:02:17.237Z,103134.51
2019-05-13T17:04:47.249Z,103140.74
2019-05-13T17:07:27.435Z,103140.84
2019-05-13T17:10:00.128Z,103143.39
2019-05-13T17:12:31.615Z,103144.20
2019-05-13T17:15:01.383Z,103141.19
2019-05-13T17:17:32.315Z,103136.87
2019-05-13T17:20:06.459Z,103135.94
2019-05-13T17:22:47.123Z,103140.38
2019-05-13T17:25:17.211Z,103144.38
2019-05-13T17:27:54.422Z,103140.58
2019-05-13T17:30:27.979Z,103145.44
2019-05-13T17:33:05.647Z,103147.23
2019-05-13T17:35:39.069Z,103145.98
2019-05-13T17:38:11.415Z,103148.73
2019-05-13T17:40:49.633Z,103146.55
2019-05-13T17:43:16.040Z,103153.11
2019-05-13T17:45:46.168Z,103144.80
2019-05-13T17:48:26.797Z,103144.39
2019-05-13T17:50:48.086Z,103139.61
2019-05-13T17:53:21.676Z,103145.30
2019-05-13T17:55:53.055Z,103147.55
2019-05-13T17:58:23.454Z,103150.23
2019-05-13T18:00:54.690Z,103151.53
2019-05-13T18:03:27.935Z,103142.39
2019-05-13T18:05:57.954Z,103141.09
2019-05-13T18:08:27.958Z,103150.28
2019-05-13T18:10:58.551Z,103146.38
2019-05-13T18:13:28.643Z,103138.91
2019-05-13T18:15:58.712Z,103147.65
2019-05-13T18:18:42.634Z,103143.31
2019-05-13T18:21:06.073Z,103154.23
2019-05-13T18:23:36.078Z,103148.98
2019-05-13T18:26:06.295Z,103141.58
2019-05-13T18:28:37.378Z,103146.37
2019-05-13T18:31:07.373Z,103147.23
2019-05-13T18:33:37.398Z,103146.81
2019-05-13T18:36:07.489Z,103149.39
2019-05-13T18:38:37.512Z,103145.89
2019-05-13T18:41:07.509Z,103150.69
2019-05-13T18:43:41.162Z,103154.19
2019-05-13T18:46:13.886Z,103154.16
2019-05-13T18:48:58.079Z,103153.28
2019-05-13T18:51:17.213Z,103154.14
2019-05-13T18:53:47.233Z,103158.52
2019-05-13T18:56:17.306Z,103158.06
2019-05-13T18:58:47.330Z,103161.53
2019-05-13T19:01:17.320Z,103162.80
2019-05-13T19:03:47.341Z,103163.62
2019-05-13T19:06:17.337Z,103168.83
2019-05-13T19:08:47.435Z,103173.14
2019-05-13T19:11:17.416Z,103169.56
2019-05-13T19:13:47.637Z,103176.93
2019-05-13T19:16:21.330Z,103176.50
2019-05-13T19:18:51.063Z,103182.55
2019-05-13T19:21:21.916Z,103179.88
2019-05-13T19:23:52.019Z,103179.88
2019-05-13T19:26:22.220Z,103176.82
2019-05-13T19:28:53.783Z,103195.06
2019-05-13T19:31:24.044Z,103196.30
2019-05-13T19:33:54.077Z,103203.20
2019-05-13T19:36:24.306Z,103208.36
2019-05-13T19:38:56.590Z,103208.36
2019-05-13T19:41:31.367Z,103206.16
2019-05-13T19:44:01.614Z,103205.73
2019-05-13T19:46:31.716Z,103209.13
2019-05-13T19:49:01.821Z,103206.04
2019-05-13T19:51:32.354Z,103209.95
2019-05-13T19:54:04.068Z,103209.83
2019-05-13T19:56:34.227Z,103217.63
2019-05-13T19:59:04.298Z,103220.23
2019-05-13T20:01:35.936Z,103219.73
2019-05-13T20:04:05.966Z,103218.33
2019-05-13T20:06:35.996Z,103210.97
2019-05-13T20:09:07.426Z,103209.97
2019-05-13T20:11:41.792Z,103214.29
2019-05-13T20:14:12.202Z,103211.23
2019-05-13T20:16:42.623Z,103217.17
2019-05-13T20:19:12.785Z,103214.96
2019-05-13T20:21:42.805Z,103224.01
2019-05-13T20:24:12.832Z,103220.56
2019-05-13T20:26:42.830Z,103223.99
2019-05-13T20:29:14.292Z,103216.02
2019-05-13T20:31:45.441Z,103213.36
2019-05-13T20:34:16.966Z,103213.80
2019-05-13T20:36:48.481Z,103212.89
2019-05-13T20:39:24.053Z,103217.19
2019-05-13T20:41:55.794Z,103218.85
2019-05-13T20:44:25.994Z,103219.27
2019-05-13T20:46:56.000Z,103222.73
2019-05-13T20:49:25.987Z,103224.88
2019-05-13T20:51:56.065Z,103227.92
2019-05-13T20:54:27.308Z,103227.03
2019-05-13T20:56:57.326Z,103223.10
2019-05-13T20:59:27.896Z,103225.22
2019-05-13T21:01:57.895Z,103225.97
2019-05-13T21:04:27.896Z,103232.42
2019-05-13T21:06:57.887Z,103232.72
2019-05-13T21:09:31.686Z,103228.33
2019-05-13T21:12:01.733Z,103231.32
2019-05-13T21:14:32.027Z,103230.80
2019-05-13T21:17:02.651Z,103224.31
2019-05-13T21:19:39.387Z,103219.59
2019-05-13T21:22:05.320Z,103223.84
2019-05-13T21:24:38.371Z,103218.63
2019-05-13T21:27:08.451Z,103218.58
2019-05-13T21:29:38.494Z,103213.70
2019-05-13T21:32:11.595Z,103206.62
2019-05-13T21:34:41.209Z,103209.58
2019-05-13T21:37:14.149Z,103214.00
2019-05-13T21:39:44.163Z,103214.02
2019-05-13T21:42:14.159Z,103208.77
2019-05-13T21:44:44.166Z,103209.50
2019-05-13T21:47:16.825Z,103211.59
2019-05-13T21:49:47.008Z,103210.29
2019-05-13T21:52:17.110Z,103214.61
2019-05-13T21:54:47.185Z,103211.98
2019-05-13T21:57:17.261Z,103207.62
2019-05-13T21:59:47.401Z,103213.62
2019-05-13T22:02:17.928Z,103204.44
2019-05-13T22:04:51.714Z,103209.16
2019-05-13T22:07:22.280Z,103208.59
2019-05-13T22:09:52.433Z,103217.52
2019-05-13T22:12:23.378Z,103213.22
2019-05-13T22:14:53.359Z,103216.17
2019-05-13T22:17:23.937Z,103207.55
2019-05-13T22:19:53.949Z,103206.19
2019-05-13T22:22:24.909Z,103206.17
2019-05-13T22:24:54.905Z,103201.78
2019-05-13T22:27:24.894Z,103202.00
2019-05-13T22:29:54.899Z,103205.75
2019-05-13T22:32:26.602Z,103199.72
2019-05-13T22:34:57.171Z,103207.33
2019-05-13T22:37:27.632Z,103199.58
2019-05-13T22:39:57.640Z,103204.16
2019-05-13T22:42:27.706Z,103199.91
2019-05-13T22:44:57.725Z,103196.89
2019-05-13T22:47:27.709Z,103190.70
2019-05-13T22:49:58.160Z,103189.95
2019-05-13T22:52:28.146Z,103189.80
2019-05-13T22:54:58.149Z,103186.80
2019-05-13T22:57:28.138Z,103185.91
2019-05-13T22:59:58.218Z,103188.11
2019-05-13T23:02:28.223Z,103193.23
2019-05-13T23:04:58.221Z,103193.15
2019-05-13T23:07:28.214Z,103189.19
2019-05-13T23:09:58.230Z,103185.66
2019-05-13T23:12:28.822Z,103189.22
2019-05-13T23:15:01.171Z,103188.78
2019-05-13T23:17:32.042Z,103186.95
2019-05-13T23:20:02.246Z,103184.69
2019-05-13T23:22:35.118Z,103180.27
2019-05-13T23:25:08.900Z,103178.58
2019-05-13T23:27:41.561Z,103175.58
2019-05-13T23:30:11.861Z,103172.41
2019-05-13T23:32:41.913Z,103168.89
2019-05-13T23:35:12.162Z,103177.94
2019-05-13T23:37:42.186Z,103169.51
2019-05-13T23:40:12.361Z,103163.75
2019-05-13T23:42:42.371Z,103161.06
2019-05-13T23:45:15.369Z,103161.39
2019-05-13T23:47:45.361Z,103159.95
2019-05-13T23:50:15.506Z,103163.38
2019-05-13T23:52:45.567Z,103157.06
2019-05-13T23:55:15.817Z,103161.70
2019-05-13T23:57:45.793Z,103168.14
